sensor_id;sensor_type;location;lat;lon;timestamp;pressure;altitude;pressure_sealevel;temperature;humidity
23899;BME280;20544;50.018;20.010;2023-03-22T00:00:53;98742.76;;;7.96;100.00
23899;BME280;20544;50.018;20.010;2023-03-22T00:04:09;98746.41;;;7.86;100.00
23899;BME280;20544;50.018;20.010;2023-03-22T00:07:26;98737.65;;;7.94;100.00
23899;BME280;20544;50.018;20.010;2023-03-22T00:10:43;98743.75;;;8.03;100.00
23899;BME280;20544;50.018;20.010;2023-03-22T00:13:59;98743.57;;;7.96;100.00
23899;BME280;20544;50.018;20.010;2023-03-22T00:17:15;98737.16;;;7.90;100.00
23899;BME280;20544;50.018;20.010;2023-03-22T00:20:33;98735.00;;;7.86;100.00
23899;BME280;20544;50.018;20.010;2023-03-22T00:23:49;98728.23;;;7.83;100.00
23899;BME280;20544;50.018;20.010;2023-03-22T00:27:06;98724.09;;;7.72;100.00
23899;BME280;20544;50.018;20.010;2023-03-22T00:30:22;98723.28;;;7.72;100.00
23899;BME280;20544;50.018;20.010;2023-03-22T00:33:38;98712.39;;;7.58;100.00
23899;BME280;20544;50.018;20.010;2023-03-22T00:36:54;98722.13;;;7.74;100.00
23899;BME280;20544;50.018;20.010;2023-03-22T00:40:13;98715.84;;;7.84;100.00
23899;BME280;20544;50.018;20.010;2023-03-22T00:43:29;98708.94;;;7.83;100.00
23899;BME280;20544;50.018;20.010;2023-03-22T00:46:45;98706.45;;;7.65;100.00
23899;BME280;20544;50.018;20.010;2023-03-22T00:50:02;98712.88;;;7.54;100.00
23899;BME280;20544;50.018;20.010;2023-03-22T00:53:20;98711.70;;;7.40;100.00
23899;BME280;20544;50.018;20.010;2023-03-22T00:56:37;98716.65;;;7.35;100.00
23899;BME280;20544;50.018;20.010;2023-03-22T00:59:54;98719.96;;;7.37;100.00
23899;BME280;20544;50.018;20.010;2023-03-22T01:03:12;98721.76;;;7.28;100.00
23899;BME280;20544;50.018;20.010;2023-03-22T01:06:30;98706.75;;;7.20;100.00
23899;BME280;20544;50.018;20.010;2023-03-22T01:09:47;98714.46;;;7.13;100.00
23899;BME280;20544;50.018;20.010;2023-03-22T01:13:03;98708.54;;;7.20;100.00
23899;BME280;20544;50.018;20.010;2023-03-22T01:16:20;98702.45;;;7.19;100.00
23899;BME280;20544;50.018;20.010;2023-03-22T01:19:36;98701.11;;;7.15;100.00
23899;BME280;20544;50.018;20.010;2023-03-22T01:22:53;98696.84;;;7.14;100.00
23899;BME280;20544;50.018;20.010;2023-03-22T01:26:09;98696.00;;;7.13;100.00
23899;BME280;20544;50.018;20.010;2023-03-22T01:29:27;98687.38;;;6.95;100.00
23899;BME280;20544;50.018;20.010;2023-03-22T01:32:43;98688.95;;;6.71;100.00
23899;BME280;20544;50.018;20.010;2023-03-22T01:36:00;98682.40;;;6.75;100.00
23899;BME280;20544;50.018;20.010;2023-03-22T01:39:16;98681.94;;;6.88;100.00
23899;BME280;20544;50.018;20.010;2023-03-22T01:42:34;98677.81;;;6.86;100.00
23899;BME280;20544;50.018;20.010;2023-03-22T01:45:52;98672.70;;;6.84;100.00
23899;BME280;20544;50.018;20.010;2023-03-22T01:49:11;98663.00;;;6.93;100.00
23899;BME280;20544;50.018;20.010;2023-03-22T01:52:30;98657.36;;;6.88;100.00
23899;BME280;20544;50.018;20.010;2023-03-22T01:55:49;98654.08;;;6.86;100.00
23899;BME280;20544;50.018;20.010;2023-03-22T01:59:14;98663.44;;;6.80;100.00
23899;BME280;20544;50.018;20.010;2023-03-22T02:02:52;98652.73;;;6.82;100.00
23899;BME280;20544;50.018;20.010;2023-03-22T02:06:10;98651.24;;;6.79;100.00
23899;BME280;20544;50.018;20.010;2023-03-22T02:09:29;98642.86;;;6.75;100.00
23899;BME280;20544;50.018;20.010;2023-03-22T02:12:54;98642.14;;;6.57;100.00
23899;BME280;20544;50.018;20.010;2023-03-22T02:16:27;98628.28;;;6.55;100.00
23899;BME280;20544;50.018;20.010;2023-03-22T02:28:07;98627.82;;;6.68;100.00
23899;BME280;20544;50.018;20.010;2023-03-22T02:35:42;98614.09;;;6.47;100.00
23899;BME280;20544;50.018;20.010;2023-03-22T02:42:46;98614.13;;;6.64;100.00
23899;BME280;20544;50.018;20.010;2023-03-22T02:46:08;98619.91;;;6.68;100.00
23899;BME280;20544;50.018;20.010;2023-03-22T02:49:30;98615.36;;;6.35;100.00
23899;BME280;20544;50.018;20.010;2023-03-22T02:52:51;98610.31;;;6.07;100.00
23899;BME280;20544;50.018;20.010;2023-03-22T02:56:11;98607.34;;;6.10;100.00
23899;BME280;20544;50.018;20.010;2023-03-22T02:59:30;98612.96;;;6.15;100.00
23899;BME280;20544;50.018;20.010;2023-03-22T03:02:47;98617.58;;;6.13;100.00
23899;BME280;20544;50.018;20.010;2023-03-22T03:06:10;98616.79;;;5.95;100.00
23899;BME280;20544;50.018;20.010;2023-03-22T03:09:29;98613.23;;;5.78;100.00
23899;BME280;20544;50.018;20.010;2023-03-22T03:12:46;98605.23;;;5.61;100.00
23899;BME280;20544;50.018;20.010;2023-03-22T03:16:04;98609.55;;;5.71;100.00
23899;BME280;20544;50.018;20.010;2023-03-22T03:19:29;98610.05;;;5.66;100.00
23899;BME280;20544;50.018;20.010;2023-03-22T03:22:54;98609.86;;;5.41;100.00
23899;BME280;20544;50.018;20.010;2023-03-22T03:26:19;98620.63;;;5.30;100.00
23899;BME280;20544;50.018;20.010;2023-03-22T03:29:41;98629.25;;;5.40;100.00
23899;BME280;20544;50.018;20.010;2023-03-22T03:33:03;98626.70;;;5.30;100.00
23899;BME280;20544;50.018;20.010;2023-03-22T03:36:22;98620.02;;;5.18;100.00
23899;BME280;20544;50.018;20.010;2023-03-22T03:39:42;98619.65;;;5.13;100.00
23899;BME280;20544;50.018;20.010;2023-03-22T03:43:03;98618.06;;;5.02;100.00
23899;BME280;20544;50.018;20.010;2023-03-22T03:46:19;98621.44;;;4.94;100.00
23899;BME280;20544;50.018;20.010;2023-03-22T03:49:37;98615.66;;;4.91;100.00
23899;BME280;20544;50.018;20.010;2023-03-22T03:52:55;98625.95;;;4.84;100.00
23899;BME280;20544;50.018;20.010;2023-03-22T03:56:11;98618.81;;;4.76;100.00
23899;BME280;20544;50.018;20.010;2023-03-22T03:59:27;98625.79;;;4.67;100.00
23899;BME280;20544;50.018;20.010;2023-03-22T04:02:46;98615.33;;;4.58;100.00
23899;BME280;20544;50.018;20.010;2023-03-22T04:06:20;98628.47;;;4.58;100.00
23899;BME280;20544;50.018;20.010;2023-03-22T04:09:39;98630.51;;;4.64;100.00
23899;BME280;20544;50.018;20.010;2023-03-22T04:12:55;98635.50;;;4.57;100.00
23899;BME280;20544;50.018;20.010;2023-03-22T04:16:12;98641.30;;;4.61;100.00
23899;BME280;20544;50.018;20.010;2023-03-22T04:19:28;98644.81;;;4.51;100.00
23899;BME280;20544;50.018;20.010;2023-03-22T04:22:45;98638.87;;;4.49;100.00
23899;BME280;20544;50.018;20.010;2023-03-22T04:26:03;98634.50;;;4.40;100.00
23899;BME280;20544;50.018;20.010;2023-03-22T04:29:22;98632.31;;;4.35;100.00
23899;BME280;20544;50.018;20.010;2023-03-22T04:32:42;98636.39;;;4.20;100.00
23899;BME280;20544;50.018;20.010;2023-03-22T04:36:00;98634.73;;;4.19;100.00
23899;BME280;20544;50.018;20.010;2023-03-22T04:39:22;98636.09;;;4.23;100.00
23899;BME280;20544;50.018;20.010;2023-03-22T04:42:40;98636.91;;;4.24;100.00
23899;BME280;20544;50.018;20.010;2023-03-22T04:46:02;98643.22;;;4.03;100.00
23899;BME280;20544;50.018;20.010;2023-03-22T04:49:28;98648.67;;;4.19;100.00
23899;BME280;20544;50.018;20.010;2023-03-22T04:52:45;98648.95;;;4.26;100.00
23899;BME280;20544;50.018;20.010;2023-03-22T04:56:01;98655.98;;;4.26;100.00
23899;BME280;20544;50.018;20.010;2023-03-22T04:59:18;98650.00;;;4.33;100.00
23899;BME280;20544;50.018;20.010;2023-03-22T05:02:34;98651.81;;;4.33;100.00
23899;BME280;20544;50.018;20.010;2023-03-22T05:05:58;98647.56;;;4.22;100.00
23899;BME280;20544;50.018;20.010;2023-03-22T05:09:20;98650.67;;;4.08;100.00
23899;BME280;20544;50.018;20.010;2023-03-22T05:12:37;98658.29;;;3.91;100.00
23899;BME280;20544;50.018;20.010;2023-03-22T05:15:57;98650.39;;;4.01;100.00
23899;BME280;20544;50.018;20.010;2023-03-22T05:19:16;98646.38;;;4.07;100.00
23899;BME280;20544;50.018;20.010;2023-03-22T05:22:32;98651.09;;;4.03;100.00
23899;BME280;20544;50.018;20.010;2023-03-22T05:25:51;98658.39;;;4.09;100.00
23899;BME280;20544;50.018;20.010;2023-03-22T05:29:11;98670.09;;;4.15;100.00
23899;BME280;20544;50.018;20.010;2023-03-22T05:32:38;98662.08;;;4.26;100.00
23899;BME280;20544;50.018;20.010;2023-03-22T05:36:00;98664.09;;;4.32;100.00
23899;BME280;20544;50.018;20.010;2023-03-22T05:39:18;98664.59;;;4.46;100.00
23899;BME280;20544;50.018;20.010;2023-03-22T05:42:35;98669.22;;;4.62;100.00
23899;BME280;20544;50.018;20.010;2023-03-22T05:46:04;98668.15;;;4.54;100.00
23899;BME280;20544;50.018;20.010;2023-03-22T05:49:23;98667.36;;;4.72;100.00
23899;BME280;20544;50.018;20.010;2023-03-22T05:52:40;98659.58;;;4.80;100.00
23899;BME280;20544;50.018;20.010;2023-03-22T05:56:05;98665.47;;;4.92;100.00
23899;BME280;20544;50.018;20.010;2023-03-22T05:59:29;98667.04;;;5.03;100.00
23899;BME280;20544;50.018;20.010;2023-03-22T06:02:47;98657.97;;;4.97;100.00
23899;BME280;20544;50.018;20.010;2023-03-22T06:06:05;98664.06;;;5.16;100.00
23899;BME280;20544;50.018;20.010;2023-03-22T06:09:25;98661.48;;;5.24;100.00
23899;BME280;20544;50.018;20.010;2023-03-22T06:12:43;98662.63;;;5.40;100.00
23899;BME280;20544;50.018;20.010;2023-03-22T06:16:05;98677.05;;;5.54;100.00
23899;BME280;20544;50.018;20.010;2023-03-22T06:19:21;98680.73;;;5.61;100.00
23899;BME280;20544;50.018;20.010;2023-03-22T06:22:39;98673.41;;;5.73;100.00
23899;BME280;20544;50.018;20.010;2023-03-22T06:25:56;98683.84;;;5.82;100.00
23899;BME280;20544;50.018;20.010;2023-03-22T06:29:14;98683.16;;;5.98;100.00
23899;BME280;20544;50.018;20.010;2023-03-22T06:32:31;98679.45;;;6.09;100.00
23899;BME280;20544;50.018;20.010;2023-03-22T06:35:48;98686.24;;;6.20;100.00
23899;BME280;20544;50.018;20.010;2023-03-22T06:39:06;98689.10;;;6.27;100.00
23899;BME280;20544;50.018;20.010;2023-03-22T06:42:23;98683.20;;;6.33;100.00
23899;BME280;20544;50.018;20.010;2023-03-22T06:45:44;98684.70;;;6.36;100.00
23899;BME280;20544;50.018;20.010;2023-03-22T06:49:02;98687.36;;;6.44;100.00
23899;BME280;20544;50.018;20.010;2023-03-22T06:52:18;98678.66;;;6.52;100.00
23899;BME280;20544;50.018;20.010;2023-03-22T06:55:35;98683.16;;;6.59;100.00
23899;BME280;20544;50.018;20.010;2023-03-22T06:58:53;98667.86;;;6.28;100.00
23899;BME280;20544;50.018;20.010;2023-03-22T07:02:12;98669.94;;;6.51;100.00
23899;BME280;20544;50.018;20.010;2023-03-22T07:05:36;98679.05;;;6.65;100.00
23899;BME280;20544;50.018;20.010;2023-03-22T07:08:53;98677.27;;;6.74;100.00
23899;BME280;20544;50.018;20.010;2023-03-22T07:12:11;98683.39;;;6.83;100.00
23899;BME280;20544;50.018;20.010;2023-03-22T07:15:28;98690.83;;;6.87;100.00
23899;BME280;20544;50.018;20.010;2023-03-22T07:18:46;98684.09;;;6.93;100.00
23899;BME280;20544;50.018;20.010;2023-03-22T07:22:06;98677.67;;;7.04;100.00
23899;BME280;20544;50.018;20.010;2023-03-22T07:25:23;98677.36;;;7.15;100.00
23899;BME280;20544;50.018;20.010;2023-03-22T07:28:52;98677.73;;;7.20;100.00
23899;BME280;20544;50.018;20.010;2023-03-22T07:32:10;98692.85;;;7.10;100.00
23899;BME280;20544;50.018;20.010;2023-03-22T07:35:31;98687.27;;;7.13;100.00
23899;BME280;20544;50.018;20.010;2023-03-22T07:38:48;98683.98;;;7.27;100.00
23899;BME280;20544;50.018;20.010;2023-03-22T07:42:05;98673.61;;;7.42;100.00
23899;BME280;20544;50.018;20.010;2023-03-22T07:45:22;98670.00;;;7.52;100.00
23899;BME280;20544;50.018;20.010;2023-03-22T07:48:50;98666.85;;;7.65;100.00
23899;BME280;20544;50.018;20.010;2023-03-22T07:52:11;98674.93;;;7.80;100.00
23899;BME280;20544;50.018;20.010;2023-03-22T07:55:51;98669.55;;;8.77;100.00
23899;BME280;20544;50.018;20.010;2023-03-22T07:59:44;98674.09;;;9.69;100.00
23899;BME280;20544;50.018;20.010;2023-03-22T08:03:25;98666.95;;;10.08;100.00
23899;BME280;20544;50.018;20.010;2023-03-22T08:07:20;98674.59;;;10.03;100.00
23899;BME280;20544;50.018;20.010;2023-03-22T08:10:53;98680.52;;;10.43;100.00
23899;BME280;20544;50.018;20.010;2023-03-22T08:14:46;98688.97;;;11.20;100.00
23899;BME280;20544;50.018;20.010;2023-03-22T08:18:03;98689.18;;;11.62;100.00
23899;BME280;20544;50.018;20.010;2023-03-22T08:21:21;98682.98;;;11.55;100.00
23899;BME280;20544;50.018;20.010;2023-03-22T08:24:39;98680.61;;;11.88;100.00
23899;BME280;20544;50.018;20.010;2023-03-22T08:28:00;98675.01;;;11.76;100.00
23899;BME280;20544;50.018;20.010;2023-03-22T08:31:17;98671.95;;;11.79;100.00
23899;BME280;20544;50.018;20.010;2023-03-22T08:34:37;98663.22;;;11.86;100.00
23899;BME280;20544;50.018;20.010;2023-03-22T08:37:56;98664.42;;;11.83;100.00
23899;BME280;20544;50.018;20.010;2023-03-22T08:41:14;98667.66;;;12.00;100.00
23899;BME280;20544;50.018;20.010;2023-03-22T08:44:32;98664.59;;;12.03;100.00
23899;BME280;20544;50.018;20.010;2023-03-22T08:47:48;98668.94;;;12.11;100.00
23899;BME280;20544;50.018;20.010;2023-03-22T08:51:08;98672.56;;;12.03;100.00
23899;BME280;20544;50.018;20.010;2023-03-22T08:54:28;98672.20;;;12.06;100.00
23899;BME280;20544;50.018;20.010;2023-03-22T08:57:44;98674.98;;;11.98;100.00
23899;BME280;20544;50.018;20.010;2023-03-22T09:01:14;98678.13;;;12.08;100.00
23899;BME280;20544;50.018;20.010;2023-03-22T09:04:33;98659.28;;;12.03;100.00
23899;BME280;20544;50.018;20.010;2023-03-22T09:07:56;98676.23;;;12.02;100.00
23899;BME280;20544;50.018;20.010;2023-03-22T09:11:18;98672.60;;;12.10;100.00
23899;BME280;20544;50.018;20.010;2023-03-22T09:14:34;98665.13;;;12.20;100.00
23899;BME280;20544;50.018;20.010;2023-03-22T09:17:51;98665.03;;;12.07;100.00
23899;BME280;20544;50.018;20.010;2023-03-22T09:21:11;98658.91;;;12.06;100.00
23899;BME280;20544;50.018;20.010;2023-03-22T09:24:31;98654.20;;;12.08;100.00
23899;BME280;20544;50.018;20.010;2023-03-22T09:27:50;98653.99;;;12.10;100.00
23899;BME280;20544;50.018;20.010;2023-03-22T09:31:08;98650.60;;;11.94;100.00
23899;BME280;20544;50.018;20.010;2023-03-22T09:34:29;98648.61;;;11.96;100.00
23899;BME280;20544;50.018;20.010;2023-03-22T09:37:45;98639.53;;;11.91;100.00
23899;BME280;20544;50.018;20.010;2023-03-22T09:41:06;98630.75;;;11.90;100.00
23899;BME280;20544;50.018;20.010;2023-03-22T09:44:28;98621.67;;;11.78;100.00
23899;BME280;20544;50.018;20.010;2023-03-22T09:47:51;98618.04;;;11.86;100.00
23899;BME280;20544;50.018;20.010;2023-03-22T09:51:16;98621.70;;;11.85;100.00
23899;BME280;20544;50.018;20.010;2023-03-22T09:54:40;98619.92;;;11.92;100.00
23899;BME280;20544;50.018;20.010;2023-03-22T09:58:04;98618.60;;;12.03;100.00
23899;BME280;20544;50.018;20.010;2023-03-22T10:01:27;98614.73;;;12.05;100.00
23899;BME280;20544;50.018;20.010;2023-03-22T10:04:50;98616.00;;;12.16;100.00
23899;BME280;20544;50.018;20.010;2023-03-22T10:08:34;98609.95;;;12.29;100.00
23899;BME280;20544;50.018;20.010;2023-03-22T10:11:57;98615.94;;;12.44;100.00
23899;BME280;20544;50.018;20.010;2023-03-22T10:15:20;98618.92;;;12.70;100.00
23899;BME280;20544;50.018;20.010;2023-03-22T10:18:42;98608.71;;;12.80;100.00
23899;BME280;20544;50.018;20.010;2023-03-22T10:22:01;98609.78;;;13.06;100.00
23899;BME280;20544;50.018;20.010;2023-03-22T10:25:23;98604.88;;;13.09;100.00
23899;BME280;20544;50.018;20.010;2023-03-22T10:28:42;98605.93;;;13.35;100.00
23899;BME280;20544;50.018;20.010;2023-03-22T10:32:08;98605.29;;;13.13;100.00
23899;BME280;20544;50.018;20.010;2023-03-22T10:35:29;98599.38;;;13.31;100.00
23899;BME280;20544;50.018;20.010;2023-03-22T10:38:49;98598.38;;;13.46;100.00
23899;BME280;20544;50.018;20.010;2023-03-22T10:42:10;98593.27;;;13.57;100.00
23899;BME280;20544;50.018;20.010;2023-03-22T10:45:28;98591.62;;;13.70;100.00
23899;BME280;20544;50.018;20.010;2023-03-22T10:48:49;98587.70;;;13.86;100.00
23899;BME280;20544;50.018;20.010;2023-03-22T10:52:11;98587.28;;;13.96;100.00
23899;BME280;20544;50.018;20.010;2023-03-22T10:55:38;98586.82;;;14.05;100.00
23899;BME280;20544;50.018;20.010;2023-03-22T10:58:56;98586.64;;;14.07;100.00
23899;BME280;20544;50.018;20.010;2023-03-22T11:02:23;98584.13;;;14.19;100.00
23899;BME280;20544;50.018;20.010;2023-03-22T11:05:41;98579.99;;;14.30;100.00
23899;BME280;20544;50.018;20.010;2023-03-22T11:08:59;98574.61;;;14.43;100.00
23899;BME280;20544;50.018;20.010;2023-03-22T11:12:18;98569.45;;;14.48;100.00
23899;BME280;20544;50.018;20.010;2023-03-22T11:15:35;98560.33;;;14.63;100.00
23899;BME280;20544;50.018;20.010;2023-03-22T11:18:55;98572.45;;;14.72;100.00
23899;BME280;20544;50.018;20.010;2023-03-22T11:22:21;98564.36;;;14.85;100.00
23899;BME280;20544;50.018;20.010;2023-03-22T11:25:44;98560.08;;;15.10;100.00
23899;BME280;20544;50.018;20.010;2023-03-22T11:29:11;98563.63;;;15.29;100.00
23899;BME280;20544;50.018;20.010;2023-03-22T11:32:31;98556.67;;;15.28;100.00
23899;BME280;20544;50.018;20.010;2023-03-22T11:35:54;98554.91;;;15.40;100.00
23899;BME280;20544;50.018;20.010;2023-03-22T11:39:13;98547.66;;;15.47;100.00
23899;BME280;20544;50.018;20.010;2023-03-22T11:42:31;98546.55;;;15.55;100.00
23899;BME280;20544;50.018;20.010;2023-03-22T11:45:51;98544.64;;;15.62;100.00
23899;BME280;20544;50.018;20.010;2023-03-22T11:49:12;98547.31;;;15.62;100.00
23899;BME280;20544;50.018;20.010;2023-03-22T11:52:29;98539.75;;;15.59;100.00
23899;BME280;20544;50.018;20.010;2023-03-22T11:55:48;98537.65;;;15.61;100.00
23899;BME280;20544;50.018;20.010;2023-03-22T11:59:11;98534.55;;;15.64;100.00
23899;BME280;20544;50.018;20.010;2023-03-22T12:02:29;98534.55;;;15.64;100.00
23899;BME280;20544;50.018;20.010;2023-03-22T12:05:50;98523.41;;;15.67;100.00
23899;BME280;20544;50.018;20.010;2023-03-22T12:09:17;98528.70;;;15.74;100.00
23899;BME280;20544;50.018;20.010;2023-03-22T12:12:41;98528.84;;;15.79;100.00
23899;BME280;20544;50.018;20.010;2023-03-22T12:16:00;98527.99;;;15.85;100.00
23899;BME280;20544;50.018;20.010;2023-03-22T12:19:34;98529.17;;;15.90;100.00
23899;BME280;20544;50.018;20.010;2023-03-22T12:22:55;98530.20;;;15.89;100.00
23899;BME280;20544;50.018;20.010;2023-03-22T12:26:16;98527.53;;;15.89;100.00
23899;BME280;20544;50.018;20.010;2023-03-22T12:29:34;98513.08;;;15.96;100.00
23899;BME280;20544;50.018;20.010;2023-03-22T12:32:55;98507.26;;;15.99;100.00
23899;BME280;20544;50.018;20.010;2023-03-22T12:36:17;98506.66;;;15.97;100.00
23899;BME280;20544;50.018;20.010;2023-03-22T12:39:39;98502.28;;;16.03;100.00
23899;BME280;20544;50.018;20.010;2023-03-22T12:43:06;98497.30;;;16.07;100.00
23899;BME280;20544;50.018;20.010;2023-03-22T12:46:28;98491.73;;;16.08;100.00
23899;BME280;20544;50.018;20.010;2023-03-22T12:49:49;98489.42;;;16.12;100.00
23899;BME280;20544;50.018;20.010;2023-03-22T12:53:13;98495.57;;;16.12;100.00
23899;BME280;20544;50.018;20.010;2023-03-22T12:56:34;98490.02;;;16.14;100.00
23899;BME280;20544;50.018;20.010;2023-03-22T12:59:54;98482.56;;;16.16;100.00
23899;BME280;20544;50.018;20.010;2023-03-22T13:03:24;98485.84;;;16.18;100.00
23899;BME280;20544;50.018;20.010;2023-03-22T13:06:57;98491.33;;;16.23;100.00
23899;BME280;20544;50.018;20.010;2023-03-22T13:10:48;98484.34;;;16.22;100.00
23899;BME280;20544;50.018;20.010;2023-03-22T13:14:54;98487.85;;;16.23;100.00
23899;BME280;20544;50.018;20.010;2023-03-22T13:18:42;98474.24;;;16.24;100.00
23899;BME280;20544;50.018;20.010;2023-03-22T13:22:25;98474.74;;;16.33;100.00
23899;BME280;20544;50.018;20.010;2023-03-22T13:29:20;98461.13;;;16.34;100.00
23899;BME280;20544;50.018;20.010;2023-03-22T13:32:37;98461.49;;;16.38;100.00
23899;BME280;20544;50.018;20.010;2023-03-22T13:36:04;98451.70;;;16.32;100.00
23899;BME280;20544;50.018;20.010;2023-03-22T13:39:24;98453.83;;;16.42;100.00
23899;BME280;20544;50.018;20.010;2023-03-22T13:42:43;98446.60;;;16.42;100.00
23899;BME280;20544;50.018;20.010;2023-03-22T13:46:05;98442.32;;;16.41;100.00
23899;BME280;20544;50.018;20.010;2023-03-22T13:49:48;98445.00;;;16.41;100.00
23899;BME280;20544;50.018;20.010;2023-03-22T13:53:16;98447.44;;;16.43;100.00
23899;BME280;20544;50.018;20.010;2023-03-22T13:56:47;98444.39;;;16.39;100.00
23899;BME280;20544;50.018;20.010;2023-03-22T14:00:19;98435.56;;;16.39;100.00
23899;BME280;20544;50.018;20.010;2023-03-22T14:03:53;98426.94;;;16.37;100.00
23899;BME280;20544;50.018;20.010;2023-03-22T14:07:18;98419.51;;;16.39;100.00
23899;BME280;20544;50.018;20.010;2023-03-22T14:10:37;98417.74;;;16.32;100.00
23899;BME280;20544;50.018;20.010;2023-03-22T14:14:01;98414.58;;;16.24;100.00
23899;BME280;20544;50.018;20.010;2023-03-22T14:17:26;98407.23;;;16.19;100.00
23899;BME280;20544;50.018;20.010;2023-03-22T14:20:46;98410.47;;;16.21;100.00
23899;BME280;20544;50.018;20.010;2023-03-22T14:24:04;98401.88;;;16.19;100.00
23899;BME280;20544;50.018;20.010;2023-03-22T14:27:23;98408.13;;;16.13;100.00
23899;BME280;20544;50.018;20.010;2023-03-22T14:30:40;98406.50;;;16.12;100.00
23899;BME280;20544;50.018;20.010;2023-03-22T14:33:54;98403.69;;;16.07;100.00
23899;BME280;20544;50.018;20.010;2023-03-22T14:37:15;98400.52;;;15.98;100.00
23899;BME280;20544;50.018;20.010;2023-03-22T14:40:35;98399.55;;;15.92;100.00
23899;BME280;20544;50.018;20.010;2023-03-22T14:43:56;98402.69;;;15.89;100.00
23899;BME280;20544;50.018;20.010;2023-03-22T14:47:16;98397.34;;;15.89;100.00
23899;BME280;20544;50.018;20.010;2023-03-22T14:50:41;98402.83;;;15.94;100.00
23899;BME280;20544;50.018;20.010;2023-03-22T14:54:04;98392.93;;;15.95;100.00
23899;BME280;20544;50.018;20.010;2023-03-22T14:57:23;98400.52;;;15.98;100.00
23899;BME280;20544;50.018;20.010;2023-03-22T15:00:43;98398.44;;;16.00;100.00
23899;BME280;20544;50.018;20.010;2023-03-22T15:04:03;98390.86;;;15.97;100.00
23899;BME280;20544;50.018;20.010;2023-03-22T15:07:22;98390.26;;;15.95;100.00
23899;BME280;20544;50.018;20.010;2023-03-22T15:10:41;98383.14;;;15.89;100.00
23899;BME280;20544;50.018;20.010;2023-03-22T15:13:56;98380.33;;;15.83;100.00
23899;BME280;20544;50.018;20.010;2023-03-22T15:17:14;98385.74;;;15.77;100.00
23899;BME280;20544;50.018;20.010;2023-03-22T15:20:34;98383.13;;;15.70;100.00
23899;BME280;20544;50.018;20.010;2023-03-22T15:23:54;98384.40;;;15.67;100.00
23899;BME280;20544;50.018;20.010;2023-03-22T15:27:13;98389.75;;;15.67;100.00
23899;BME280;20544;50.018;20.010;2023-03-22T15:30:32;98390.34;;;15.69;100.00
23899;BME280;20544;50.018;20.010;2023-03-22T15:33:52;98390.34;;;15.69;100.00
23899;BME280;20544;50.018;20.010;2023-03-22T15:37:14;98377.45;;;15.66;100.00
23899;BME280;20544;50.018;20.010;2023-03-22T15:40:42;98374.03;;;15.59;100.00
23899;BME280;20544;50.018;20.010;2023-03-22T15:44:12;98373.89;;;15.54;100.00
23899;BME280;20544;50.018;20.010;2023-03-22T15:47:43;98373.75;;;15.49;100.00
23899;BME280;20544;50.018;20.010;2023-03-22T15:51:00;98369.30;;;15.43;100.00
23899;BME280;20544;50.018;20.010;2023-03-22T15:54:20;98374.27;;;15.39;100.00
23899;BME280;20544;50.018;20.010;2023-03-22T15:57:43;98365.51;;;15.32;100.00
23899;BME280;20544;50.018;20.010;2023-03-22T16:01:12;98367.00;;;15.28;100.00
23899;BME280;20544;50.018;20.010;2023-03-22T16:04:34;98369.30;;;15.24;100.00
23899;BME280;20544;50.018;20.010;2023-03-22T16:07:52;98365.22;;;15.22;100.00
23899;BME280;20544;50.018;20.010;2023-03-22T16:11:10;98366.91;;;15.16;100.00
23899;BME280;20544;50.018;20.010;2023-03-22T16:14:29;98368.59;;;15.10;100.00
23899;BME280;20544;50.018;20.010;2023-03-22T16:17:48;98368.25;;;15.07;100.00
23899;BME280;20544;50.018;20.010;2023-03-22T16:21:07;98374.47;;;15.00;100.00
23899;BME280;20544;50.018;20.010;2023-03-22T16:24:25;98371.62;;;14.95;100.00
23899;BME280;20544;50.018;20.010;2023-03-22T16:27:42;98363.46;;;14.90;100.00
23899;BME280;20544;50.018;20.010;2023-03-22T16:31:01;98365.98;;;14.85;100.00
23899;BME280;20544;50.018;20.010;2023-03-22T16:34:21;98372.19;;;14.79;100.00
23899;BME280;20544;50.018;20.010;2023-03-22T16:37:47;98370.17;;;14.74;100.00
23899;BME280;20544;50.018;20.010;2023-03-22T16:41:17;98370.23;;;14.67;100.00
23899;BME280;20544;50.018;20.010;2023-03-22T16:44:34;98377.25;;;14.62;100.00
23899;BME280;20544;50.018;20.010;2023-03-22T16:47:55;98371.37;;;14.53;100.00
23899;BME280;20544;50.018;20.010;2023-03-22T16:51:22;98377.77;;;14.45;100.00
23899;BME280;20544;50.018;20.010;2023-03-22T16:54:44;98365.13;;;14.34;100.00
23899;BME280;20544;50.018;20.010;2023-03-22T16:58:02;98369.30;;;14.23;100.00
23899;BME280;20544;50.018;20.010;2023-03-22T17:01:21;98372.46;;;14.13;100.00
23899;BME280;20544;50.018;20.010;2023-03-22T17:04:37;98374.98;;;14.01;100.00
23899;BME280;20544;50.018;20.010;2023-03-22T17:07:55;98377.88;;;13.93;100.00
23899;BME280;20544;50.018;20.010;2023-03-22T17:11:19;98375.27;;;13.86;100.00
23899;BME280;20544;50.018;20.010;2023-03-22T17:14:38;98381.66;;;13.79;100.00
23899;BME280;20544;50.018;20.010;2023-03-22T17:17:55;98378.61;;;13.75;100.00
23899;BME280;20544;50.018;20.010;2023-03-22T17:21:15;98379.05;;;13.65;100.00
23899;BME280;20544;50.018;20.010;2023-03-22T17:24:33;98377.27;;;13.52;100.00
23899;BME280;20544;50.018;20.010;2023-03-22T17:27:50;98380.38;;;13.42;100.00
23899;BME280;20544;50.018;20.010;2023-03-22T17:31:10;98383.66;;;13.38;100.00
23899;BME280;20544;50.018;20.010;2023-03-22T17:34:30;98383.03;;;13.42;100.00
23899;BME280;20544;50.018;20.010;2023-03-22T17:41:04;98375.91;;;13.16;100.00
23899;BME280;20544;50.018;20.010;2023-03-22T17:44:22;98380.00;;;13.12;100.00
23899;BME280;20544;50.018;20.010;2023-03-22T17:47:39;98377.55;;;13.17;100.00